sensor_id;sensor_type;location;lat;lon;timestamp;P1;durP1;ratioP1;P2;durP2;ratioP2
10170;SDS011;5127;50.922;6.988;2022-12-20T00:00:09;2.50;;;2.00;;
10170;SDS011;5127;50.922;6.988;2022-12-20T00:02:37;2.07;;;1.87;;
10170;SDS011;5127;50.922;6.988;2022-12-20T00:05:05;2.07;;;1.87;;
10170;SDS011;5127;50.922;6.988;2022-12-20T00:07:33;3.07;;;2.00;;
10170;SDS011;5127;50.922;6.988;2022-12-20T00:10:00;2.00;;;1.80;;
10170;SDS011;5127;50.922;6.988;2022-12-20T00:12:28;1.80;;;1.70;;
10170;SDS011;5127;50.922;6.988;2022-12-20T00:14:56;2.77;;;1.90;;
10170;SDS011;5127;50.922;6.988;2022-12-20T00:17:24;1.97;;;1.60;;
10170;SDS011;5127;50.922;6.988;2022-12-20T00:19:51;2.50;;;1.80;;
10170;SDS011;5127;50.922;6.988;2022-12-20T00:22:18;3.40;;;2.00;;
10170;SDS011;5127;50.922;6.988;2022-12-20T00:24:46;2.43;;;2.07;;
10170;SDS011;5127;50.922;6.988;2022-12-20T00:27:13;2.50;;;1.80;;
10170;SDS011;5127;50.922;6.988;2022-12-20T00:29:40;2.87;;;2.03;;
10170;SDS011;5127;50.922;6.988;2022-12-20T00:32:09;2.90;;;2.23;;
10170;SDS011;5127;50.922;6.988;2022-12-20T00:34:36;4.43;;;2.07;;
10170;SDS011;5127;50.922;6.988;2022-12-20T00:37:04;2.30;;;2.10;;
10170;SDS011;5127;50.922;6.988;2022-12-20T00:39:31;2.67;;;1.80;;
10170;SDS011;5127;50.922;6.988;2022-12-20T00:41:58;2.83;;;1.80;;
10170;SDS011;5127;50.922;6.988;2022-12-20T00:44:25;2.37;;;1.90;;
10170;SDS011;5127;50.922;6.988;2022-12-20T00:46:53;2.00;;;1.80;;
10170;SDS011;5127;50.922;6.988;2022-12-20T00:49:22;2.13;;;1.80;;
10170;SDS011;5127;50.922;6.988;2022-12-20T00:51:49;1.80;;;1.70;;
10170;SDS011;5127;50.922;6.988;2022-12-20T00:54:17;2.10;;;1.70;;
10170;SDS011;5127;50.922;6.988;2022-12-20T00:56:44;1.93;;;1.80;;
10170;SDS011;5127;50.922;6.988;2022-12-20T00:59:12;2.30;;;2.10;;
10170;SDS011;5127;50.922;6.988;2022-12-20T01:01:40;2.37;;;1.73;;
10170;SDS011;5127;50.922;6.988;2022-12-20T01:04:07;2.30;;;2.10;;
10170;SDS011;5127;50.922;6.988;2022-12-20T01:06:36;2.87;;;1.87;;
10170;SDS011;5127;50.922;6.988;2022-12-20T01:09:03;1.70;;;1.60;;
10170;SDS011;5127;50.922;6.988;2022-12-20T01:11:31;2.00;;;1.80;;
10170;SDS011;5127;50.922;6.988;2022-12-20T01:14:01;2.70;;;2.10;;
10170;SDS011;5127;50.922;6.988;2022-12-20T01:16:31;1.93;;;1.73;;
10170;SDS011;5127;50.922;6.988;2022-12-20T01:19:00;2.43;;;1.97;;
10170;SDS011;5127;50.922;6.988;2022-12-20T01:21:28;3.07;;;1.93;;
10170;SDS011;5127;50.922;6.988;2022-12-20T01:23:58;2.43;;;1.73;;
10170;SDS011;5127;50.922;6.988;2022-12-20T01:26:26;1.83;;;1.73;;
10170;SDS011;5127;50.922;6.988;2022-12-20T01:28:56;2.47;;;1.80;;
10170;SDS011;5127;50.922;6.988;2022-12-20T01:31:24;2.70;;;1.70;;
10170;SDS011;5127;50.922;6.988;2022-12-20T01:33:53;3.63;;;1.90;;
10170;SDS011;5127;50.922;6.988;2022-12-20T01:36:21;3.40;;;1.90;;
10170;SDS011;5127;50.922;6.988;2022-12-20T01:38:50;2.00;;;1.80;;
10170;SDS011;5127;50.922;6.988;2022-12-20T01:41:22;1.70;;;1.47;;
10170;SDS011;5127;50.922;6.988;2022-12-20T01:43:51;1.57;;;1.47;;
10170;SDS011;5127;50.922;6.988;2022-12-20T01:46:20;1.87;;;1.70;;
10170;SDS011;5127;50.922;6.988;2022-12-20T01:48:50;1.70;;;1.60;;
10170;SDS011;5127;50.922;6.988;2022-12-20T01:51:20;2.00;;;1.60;;
10170;SDS011;5127;50.922;6.988;2022-12-20T01:53:50;1.67;;;1.57;;
10170;SDS011;5127;50.922;6.988;2022-12-20T01:56:23;2.63;;;1.97;;
10170;SDS011;5127;50.922;6.988;2022-12-20T01:58:52;2.33;;;1.60;;
10170;SDS011;5127;50.922;6.988;2022-12-20T02:01:22;2.13;;;1.73;;
10170;SDS011;5127;50.922;6.988;2022-12-20T02:03:50;2.03;;;1.63;;
10170;SDS011;5127;50.922;6.988;2022-12-20T02:06:21;1.93;;;1.80;;
10170;SDS011;5127;50.922;6.988;2022-12-20T02:08:50;3.40;;;1.70;;
10170;SDS011;5127;50.922;6.988;2022-12-20T02:11:27;2.67;;;1.93;;
10170;SDS011;5127;50.922;6.988;2022-12-20T02:14:27;2.37;;;1.60;;
10170;SDS011;5127;50.922;6.988;2022-12-20T02:17:02;2.30;;;1.90;;
10170;SDS011;5127;50.922;6.988;2022-12-20T02:19:49;3.17;;;2.03;;
10170;SDS011;5127;50.922;6.988;2022-12-20T02:22:36;2.47;;;2.00;;
10170;SDS011;5127;50.922;6.988;2022-12-20T02:28:16;2.80;;;1.90;;
10170;SDS011;5127;50.922;6.988;2022-12-20T02:31:01;2.87;;;1.97;;
10170;SDS011;5127;50.922;6.988;2022-12-20T02:33:33;2.73;;;1.63;;
10170;SDS011;5127;50.922;6.988;2022-12-20T02:36:01;3.33;;;1.83;;
10170;SDS011;5127;50.922;6.988;2022-12-20T02:38:30;2.53;;;2.13;;
10170;SDS011;5127;50.922;6.988;2022-12-20T02:41:00;2.47;;;2.27;;
10170;SDS011;5127;50.922;6.988;2022-12-20T02:43:30;2.23;;;2.03;;
10170;SDS011;5127;50.922;6.988;2022-12-20T02:46:18;2.10;;;1.90;;
10170;SDS011;5127;50.922;6.988;2022-12-20T02:48:49;2.10;;;1.80;;
10170;SDS011;5127;50.922;6.988;2022-12-20T02:51:19;2.60;;;1.80;;
10170;SDS011;5127;50.922;6.988;2022-12-20T02:53:48;2.50;;;1.90;;
10170;SDS011;5127;50.922;6.988;2022-12-20T02:56:19;2.47;;;2.27;;
10170;SDS011;5127;50.922;6.988;2022-12-20T02:58:52;2.33;;;2.00;;
10170;SDS011;5127;50.922;6.988;2022-12-20T03:01:26;2.77;;;2.30;;
10170;SDS011;5127;50.922;6.988;2022-12-20T03:03:57;3.67;;;2.13;;
10170;SDS011;5127;50.922;6.988;2022-12-20T03:06:24;2.77;;;1.87;;
10170;SDS011;5127;50.922;6.988;2022-12-20T03:08:52;3.23;;;2.30;;
10170;SDS011;5127;50.922;6.988;2022-12-20T03:11:23;2.87;;;2.17;;
10170;SDS011;5127;50.922;6.988;2022-12-20T03:13:51;2.53;;;2.30;;
10170;SDS011;5127;50.922;6.988;2022-12-20T03:16:18;2.70;;;2.20;;
10170;SDS011;5127;50.922;6.988;2022-12-20T03:18:47;3.73;;;2.30;;
10170;SDS011;5127;50.922;6.988;2022-12-20T03:21:14;2.60;;;2.20;;
10170;SDS011;5127;50.922;6.988;2022-12-20T03:23:42;2.50;;;2.10;;
10170;SDS011;5127;50.922;6.988;2022-12-20T03:26:09;2.47;;;2.27;;
10170;SDS011;5127;50.922;6.988;2022-12-20T03:28:41;2.77;;;2.17;;
10170;SDS011;5127;50.922;6.988;2022-12-20T03:31:12;2.70;;;2.17;;
10170;SDS011;5127;50.922;6.988;2022-12-20T03:33:45;3.47;;;2.03;;
10170;SDS011;5127;50.922;6.988;2022-12-20T03:36:14;2.60;;;2.40;;
10170;SDS011;5127;50.922;6.988;2022-12-20T03:38:42;2.77;;;2.30;;
10170;SDS011;5127;50.922;6.988;2022-12-20T03:41:10;2.50;;;2.03;;
10170;SDS011;5127;50.922;6.988;2022-12-20T03:43:37;3.00;;;2.07;;
10170;SDS011;5127;50.922;6.988;2022-12-20T03:46:04;2.43;;;1.90;;
10170;SDS011;5127;50.922;6.988;2022-12-20T03:48:36;2.70;;;2.10;;
10170;SDS011;5127;50.922;6.988;2022-12-20T03:51:04;3.50;;;1.83;;
10170;SDS011;5127;50.922;6.988;2022-12-20T03:53:33;3.40;;;1.90;;
10170;SDS011;5127;50.922;6.988;2022-12-20T03:56:01;2.30;;;1.90;;
10170;SDS011;5127;50.922;6.988;2022-12-20T03:58:29;2.43;;;1.60;;
10170;SDS011;5127;50.922;6.988;2022-12-20T04:00:56;2.87;;;2.00;;
10170;SDS011;5127;50.922;6.988;2022-12-20T04:03:35;3.10;;;2.07;;
10170;SDS011;5127;50.922;6.988;2022-12-20T04:06:03;2.50;;;1.50;;
10170;SDS011;5127;50.922;6.988;2022-12-20T04:08:31;3.20;;;2.10;;
10170;SDS011;5127;50.922;6.988;2022-12-20T04:10:59;2.20;;;1.90;;
10170;SDS011;5127;50.922;6.988;2022-12-20T04:13:57;2.33;;;1.80;;
10170;SDS011;5127;50.922;6.988;2022-12-20T04:16:26;1.87;;;1.70;;
10170;SDS011;5127;50.922;6.988;2022-12-20T04:18:55;1.90;;;1.80;;
10170;SDS011;5127;50.922;6.988;2022-12-20T04:21:24;2.30;;;2.10;;
10170;SDS011;5127;50.922;6.988;2022-12-20T04:23:55;4.17;;;2.57;;
10170;SDS011;5127;50.922;6.988;2022-12-20T04:26:30;2.90;;;2.40;;
10170;SDS011;5127;50.922;6.988;2022-12-20T04:28:59;3.07;;;2.77;;
10170;SDS011;5127;50.922;6.988;2022-12-20T04:31:27;3.53;;;2.20;;
10170;SDS011;5127;50.922;6.988;2022-12-20T04:33:55;2.90;;;2.20;;
10170;SDS011;5127;50.922;6.988;2022-12-20T04:36:23;2.20;;;2.00;;
10170;SDS011;5127;50.922;6.988;2022-12-20T04:38:52;4.83;;;2.37;;
10170;SDS011;5127;50.922;6.988;2022-12-20T04:41:19;2.30;;;2.10;;
10170;SDS011;5127;50.922;6.988;2022-12-20T04:43:57;3.10;;;2.03;;
10170;SDS011;5127;50.922;6.988;2022-12-20T04:46:32;3.50;;;2.20;;
10170;SDS011;5127;50.922;6.988;2022-12-20T04:49:00;3.87;;;2.57;;
10170;SDS011;5127;50.922;6.988;2022-12-20T04:51:30;3.57;;;2.87;;
10170;SDS011;5127;50.922;6.988;2022-12-20T04:53:58;4.10;;;3.10;;
10170;SDS011;5127;50.922;6.988;2022-12-20T04:56:42;4.50;;;2.67;;
10170;SDS011;5127;50.922;6.988;2022-12-20T04:59:15;3.03;;;2.80;;
10170;SDS011;5127;50.922;6.988;2022-12-20T05:01:44;3.50;;;2.40;;
10170;SDS011;5127;50.922;6.988;2022-12-20T05:04:17;3.03;;;2.37;;
10170;SDS011;5127;50.922;6.988;2022-12-20T05:06:44;4.47;;;2.27;;
10170;SDS011;5127;50.922;6.988;2022-12-20T05:09:12;3.87;;;2.40;;
10170;SDS011;5127;50.922;6.988;2022-12-20T05:11:40;2.83;;;2.43;;
10170;SDS011;5127;50.922;6.988;2022-12-20T05:14:08;3.37;;;2.57;;
10170;SDS011;5127;50.922;6.988;2022-12-20T05:16:36;3.27;;;2.50;;
10170;SDS011;5127;50.922;6.988;2022-12-20T05:19:04;3.30;;;2.57;;
10170;SDS011;5127;50.922;6.988;2022-12-20T05:21:37;2.47;;;2.20;;
10170;SDS011;5127;50.922;6.988;2022-12-20T05:24:21;2.63;;;2.40;;
10170;SDS011;5127;50.922;6.988;2022-12-20T05:27:25;2.53;;;2.33;;
10170;SDS011;5127;50.922;6.988;2022-12-20T05:29:52;2.70;;;2.50;;
10170;SDS011;5127;50.922;6.988;2022-12-20T05:32:21;4.30;;;2.33;;
10170;SDS011;5127;50.922;6.988;2022-12-20T05:34:50;3.30;;;2.70;;
10170;SDS011;5127;50.922;6.988;2022-12-20T05:37:19;3.83;;;2.63;;
10170;SDS011;5127;50.922;6.988;2022-12-20T05:39:46;2.60;;;2.40;;
10170;SDS011;5127;50.922;6.988;2022-12-20T05:42:19;3.97;;;2.57;;
10170;SDS011;5127;50.922;6.988;2022-12-20T05:44:49;5.63;;;2.40;;
10170;SDS011;5127;50.922;6.988;2022-12-20T05:47:16;3.07;;;2.40;;
10170;SDS011;5127;50.922;6.988;2022-12-20T05:49:45;3.77;;;2.70;;
10170;SDS011;5127;50.922;6.988;2022-12-20T05:52:12;2.83;;;2.50;;
10170;SDS011;5127;50.922;6.988;2022-12-20T05:54:41;6.30;;;2.80;;
10170;SDS011;5127;50.922;6.988;2022-12-20T05:57:16;4.10;;;2.60;;
10170;SDS011;5127;50.922;6.988;2022-12-20T05:59:45;3.13;;;2.37;;
10170;SDS011;5127;50.922;6.988;2022-12-20T06:02:15;3.43;;;2.57;;
10170;SDS011;5127;50.922;6.988;2022-12-20T06:04:45;5.63;;;2.87;;
10170;SDS011;5127;50.922;6.988;2022-12-20T06:07:19;3.17;;;2.50;;
10170;SDS011;5127;50.922;6.988;2022-12-20T06:09:50;3.17;;;2.40;;
10170;SDS011;5127;50.922;6.988;2022-12-20T06:12:21;2.53;;;2.33;;
10170;SDS011;5127;50.922;6.988;2022-12-20T06:14:50;2.53;;;2.33;;
10170;SDS011;5127;50.922;6.988;2022-12-20T06:17:18;2.77;;;2.57;;
10170;SDS011;5127;50.922;6.988;2022-12-20T06:19:47;3.13;;;2.57;;
10170;SDS011;5127;50.922;6.988;2022-12-20T06:22:16;3.43;;;2.57;;
10170;SDS011;5127;50.922;6.988;2022-12-20T06:24:47;2.77;;;2.57;;
10170;SDS011;5127;50.922;6.988;2022-12-20T06:27:17;3.97;;;2.87;;
10170;SDS011;5127;50.922;6.988;2022-12-20T06:29:51;4.77;;;2.70;;
10170;SDS011;5127;50.922;6.988;2022-12-20T06:32:22;3.37;;;2.80;;
10170;SDS011;5127;50.922;6.988;2022-12-20T06:34:51;4.37;;;2.93;;
10170;SDS011;5127;50.922;6.988;2022-12-20T06:37:20;4.83;;;3.00;;
10170;SDS011;5127;50.922;6.988;2022-12-20T06:39:47;3.57;;;2.80;;
10170;SDS011;5127;50.922;6.988;2022-12-20T06:42:14;4.37;;;2.60;;
10170;SDS011;5127;50.922;6.988;2022-12-20T06:44:43;4.50;;;2.73;;
10170;SDS011;5127;50.922;6.988;2022-12-20T06:47:11;2.77;;;2.50;;
10170;SDS011;5127;50.922;6.988;2022-12-20T06:49:38;3.00;;;2.40;;
10170;SDS011;5127;50.922;6.988;2022-12-20T06:52:14;4.27;;;2.30;;
10170;SDS011;5127;50.922;6.988;2022-12-20T06:54:45;3.37;;;2.70;;
10170;SDS011;5127;50.922;6.988;2022-12-20T06:57:12;2.50;;;2.30;;
10170;SDS011;5127;50.922;6.988;2022-12-20T06:59:41;5.67;;;2.63;;
10170;SDS011;5127;50.922;6.988;2022-12-20T07:02:08;5.53;;;3.03;;
10170;SDS011;5127;50.922;6.988;2022-12-20T07:04:36;2.93;;;2.47;;
10170;SDS011;5127;50.922;6.988;2022-12-20T07:07:04;3.30;;;2.70;;
10170;SDS011;5127;50.922;6.988;2022-12-20T07:09:33;3.27;;;2.43;;
10170;SDS011;5127;50.922;6.988;2022-12-20T07:12:00;3.20;;;2.67;;
10170;SDS011;5127;50.922;6.988;2022-12-20T07:14:27;4.30;;;2.70;;
10170;SDS011;5127;50.922;6.988;2022-12-20T07:16:55;4.97;;;2.50;;
10170;SDS011;5127;50.922;6.988;2022-12-20T07:19:22;3.00;;;2.70;;
10170;SDS011;5127;50.922;6.988;2022-12-20T07:21:49;2.40;;;2.20;;
10170;SDS011;5127;50.922;6.988;2022-12-20T07:24:17;2.57;;;2.37;;
10170;SDS011;5127;50.922;6.988;2022-12-20T07:26:45;3.33;;;2.30;;
10170;SDS011;5127;50.922;6.988;2022-12-20T07:29:13;3.13;;;2.43;;
10170;SDS011;5127;50.922;6.988;2022-12-20T07:31:40;2.80;;;2.30;;
10170;SDS011;5127;50.922;6.988;2022-12-20T07:34:07;3.90;;;2.60;;
10170;SDS011;5127;50.922;6.988;2022-12-20T07:36:35;5.17;;;2.67;;
10170;SDS011;5127;50.922;6.988;2022-12-20T07:39:02;2.93;;;2.50;;
10170;SDS011;5127;50.922;6.988;2022-12-20T07:41:30;4.53;;;2.60;;
10170;SDS011;5127;50.922;6.988;2022-12-20T07:43:58;2.83;;;2.60;;
10170;SDS011;5127;50.922;6.988;2022-12-20T07:46:26;2.60;;;2.40;;
10170;SDS011;5127;50.922;6.988;2022-12-20T07:48:54;2.53;;;2.33;;
10170;SDS011;5127;50.922;6.988;2022-12-20T07:51:22;2.23;;;2.03;;
10170;SDS011;5127;50.922;6.988;2022-12-20T07:53:52;3.23;;;2.93;;
10170;SDS011;5127;50.922;6.988;2022-12-20T07:56:24;4.50;;;2.67;;
10170;SDS011;5127;50.922;6.988;2022-12-20T07:58:53;2.90;;;2.30;;
10170;SDS011;5127;50.922;6.988;2022-12-20T08:01:24;2.87;;;2.67;;
10170;SDS011;5127;50.922;6.988;2022-12-20T08:03:55;3.10;;;2.70;;
10170;SDS011;5127;50.922;6.988;2022-12-20T08:06:25;3.90;;;2.70;;
10170;SDS011;5127;50.922;6.988;2022-12-20T08:08:53;3.00;;;2.50;;
10170;SDS011;5127;50.922;6.988;2022-12-20T08:11:24;2.77;;;2.07;;
10170;SDS011;5127;50.922;6.988;2022-12-20T08:13:53;3.33;;;2.20;;
10170;SDS011;5127;50.922;6.988;2022-12-20T08:16:21;2.40;;;2.20;;
10170;SDS011;5127;50.922;6.988;2022-12-20T08:18:49;4.90;;;2.37;;
10170;SDS011;5127;50.922;6.988;2022-12-20T08:21:17;5.83;;;2.40;;
10170;SDS011;5127;50.922;6.988;2022-12-20T08:23:44;2.63;;;2.27;;
10170;SDS011;5127;50.922;6.988;2022-12-20T08:26:11;2.83;;;2.03;;
10170;SDS011;5127;50.922;6.988;2022-12-20T08:28:39;3.03;;;2.70;;
10170;SDS011;5127;50.922;6.988;2022-12-20T08:31:07;5.70;;;3.10;;
10170;SDS011;5127;50.922;6.988;2022-12-20T08:33:35;4.03;;;2.67;;
10170;SDS011;5127;50.922;6.988;2022-12-20T08:36:05;4.00;;;2.70;;
10170;SDS011;5127;50.922;6.988;2022-12-20T08:38:34;2.90;;;2.60;;
10170;SDS011;5127;50.922;6.988;2022-12-20T08:41:03;3.63;;;3.27;;
10170;SDS011;5127;50.922;6.988;2022-12-20T08:43:31;9.47;;;6.60;;
10170;SDS011;5127;50.922;6.988;2022-12-20T08:45:59;10.33;;;7.60;;
10170;SDS011;5127;50.922;6.988;2022-12-20T08:48:27;12.03;;;8.47;;
10170;SDS011;5127;50.922;6.988;2022-12-20T08:50:54;11.43;;;8.40;;
10170;SDS011;5127;50.922;6.988;2022-12-20T08:53:23;9.57;;;6.70;;
10170;SDS011;5127;50.922;6.988;2022-12-20T08:55:51;8.77;;;6.53;;
10170;SDS011;5127;50.922;6.988;2022-12-20T08:58:19;7.20;;;5.40;;
10170;SDS011;5127;50.922;6.988;2022-12-20T09:00:47;7.00;;;4.87;;
10170;SDS011;5127;50.922;6.988;2022-12-20T09:03:14;5.27;;;4.47;;
10170;SDS011;5127;50.922;6.988;2022-12-20T09:05:44;5.10;;;4.60;;
10170;SDS011;5127;50.922;6.988;2022-12-20T09:08:13;5.30;;;4.33;;
10170;SDS011;5127;50.922;6.988;2022-12-20T09:10:42;4.10;;;3.70;;
10170;SDS011;5127;50.922;6.988;2022-12-20T09:13:10;4.97;;;3.07;;
10170;SDS011;5127;50.922;6.988;2022-12-20T09:15:37;2.67;;;2.47;;
10170;SDS011;5127;50.922;6.988;2022-12-20T09:18:04;2.67;;;2.27;;
10170;SDS011;5127;50.922;6.988;2022-12-20T09:20:32;4.10;;;2.27;;
10170;SDS011;5127;50.922;6.988;2022-12-20T09:22:59;2.83;;;2.30;;
10170;SDS011;5127;50.922;6.988;2022-12-20T09:25:27;2.50;;;2.30;;
10170;SDS011;5127;50.922;6.988;2022-12-20T09:27:55;3.10;;;2.47;;
10170;SDS011;5127;50.922;6.988;2022-12-20T09:30:23;3.73;;;2.73;;
10170;SDS011;5127;50.922;6.988;2022-12-20T09:32:50;2.87;;;2.50;;
10170;SDS011;5127;50.922;6.988;2022-12-20T09:35:17;3.77;;;2.53;;
10170;SDS011;5127;50.922;6.988;2022-12-20T09:37:44;3.60;;;2.87;;
10170;SDS011;5127;50.922;6.988;2022-12-20T09:40:13;4.10;;;2.90;;
10170;SDS011;5127;50.922;6.988;2022-12-20T09:42:43;4.20;;;3.20;;
10170;SDS011;5127;50.922;6.988;2022-12-20T09:45:15;4.37;;;2.63;;
10170;SDS011;5127;50.922;6.988;2022-12-20T09:47:47;3.20;;;2.40;;
10170;SDS011;5127;50.922;6.988;2022-12-20T09:50:14;5.40;;;2.73;;
10170;SDS011;5127;50.922;6.988;2022-12-20T09:52:51;2.87;;;2.30;;
10170;SDS011;5127;50.922;6.988;2022-12-20T09:55:30;3.07;;;2.30;;
10170;SDS011;5127;50.922;6.988;2022-12-20T09:58:09;4.17;;;2.20;;
10170;SDS011;5127;50.922;6.988;2022-12-20T10:00:52;2.83;;;2.30;;
10170;SDS011;5127;50.922;6.988;2022-12-20T10:03:21;3.27;;;2.37;;
10170;SDS011;5127;50.922;6.988;2022-12-20T10:05:51;3.00;;;2.40;;
10170;SDS011;5127;50.922;6.988;2022-12-20T10:08:24;4.83;;;2.33;;
10170;SDS011;5127;50.922;6.988;2022-12-20T10:11:04;2.33;;;2.00;;
10170;SDS011;5127;50.922;6.988;2022-12-20T10:13:46;2.83;;;2.00;;
10170;SDS011;5127;50.922;6.988;2022-12-20T10:16:34;3.33;;;2.53;;
10170;SDS011;5127;50.922;6.988;2022-12-20T10:19:11;2.70;;;2.27;;
10170;SDS011;5127;50.922;6.988;2022-12-20T10:21:51;4.13;;;2.50;;
10170;SDS011;5127;50.922;6.988;2022-12-20T10:24:26;3.03;;;2.27;;
10170;SDS011;5127;50.922;6.988;2022-12-20T10:26:56;3.77;;;2.30;;
10170;SDS011;5127;50.922;6.988;2022-12-20T10:29:27;2.60;;;2.40;;
10170;SDS011;5127;50.922;6.988;2022-12-20T10:31:57;3.63;;;2.20;;
10170;SDS011;5127;50.922;6.988;2022-12-20T10:34:26;2.40;;;2.10;;
10170;SDS011;5127;50.922;6.988;2022-12-20T10:39:40;2.20;;;2.00;;
10170;SDS011;5127;50.922;6.988;2022-12-20T10:42:21;2.83;;;2.03;;
10170;SDS011;5127;50.922;6.988;2022-12-20T10:44:52;3.53;;;2.10;;
10170;SDS011;5127;50.922;6.988;2022-12-20T10:47:33;3.23;;;2.20;;
10170;SDS011;5127;50.922;6.988;2022-12-20T10:50:12;3.23;;;2.30;;
10170;SDS011;5127;50.922;6.988;2022-12-20T10:52:43;4.07;;;2.10;;
10170;SDS011;5127;50.922;6.988;2022-12-20T10:58:03;3.30;;;2.17;;
10170;SDS011;5127;50.922;6.988;2022-12-20T11:00:37;3.40;;;2.03;;
10170;SDS011;5127;50.922;6.988;2022-12-20T11:03:10;2.30;;;2.10;;
10170;SDS011;5127;50.922;6.988;2022-12-20T11:05:40;3.97;;;2.23;;
10170;SDS011;5127;50.922;6.988;2022-12-20T11:08:20;3.57;;;2.20;;
10170;SDS011;5127;50.922;6.988;2022-12-20T11:10:48;2.90;;;2.00;;
10170;SDS011;5127;50.922;6.988;2022-12-20T11:13:23;3.53;;;2.10;;
10170;SDS011;5127;50.922;6.988;2022-12-20T11:15:54;2.93;;;1.97;;
10170;SDS011;5127;50.922;6.988;2022-12-20T11:18:29;3.13;;;1.90;;
10170;SDS011;5127;50.922;6.988;2022-12-20T11:21:10;3.00;;;2.10;;
10170;SDS011;5127;50.922;6.988;2022-12-20T11:23:46;2.50;;;2.00;;
10170;SDS011;5127;50.922;6.988;2022-12-20T11:26:26;4.27;;;2.03;;
10170;SDS011;5127;50.922;6.988;2022-12-20T11:29:08;3.57;;;2.03;;
10170;SDS011;5127;50.922;6.988;2022-12-20T11:31:48;3.60;;;2.20;;
10170;SDS011;5127;50.922;6.988;2022-12-20T11:34:24;3.40;;;1.80;;
10170;SDS011;5127;50.922;6.988;2022-12-20T11:37:05;3.13;;;2.30;;
10170;SDS011;5127;50.922;6.988;2022-12-20T11:39:46;2.53;;;2.30;;
10170;SDS011;5127;50.922;6.988;2022-12-20T11:42:27;3.00;;;2.00;;
10170;SDS011;5127;50.922;6.988;2022-12-20T11:45:05;2.80;;;2.20;;
10170;SDS011;5127;50.922;6.988;2022-12-20T11:47:47;2.90;;;2.40;;
10170;SDS011;5127;50.922;6.988;2022-12-20T11:50:44;2.37;;;2.07;;
10170;SDS011;5127;50.922;6.988;2022-12-20T11:53:19;3.13;;;2.03;;
10170;SDS011;5127;50.922;6.988;2022-12-20T11:55:53;2.67;;;2.07;;
10170;SDS011;5127;50.922;6.988;2022-12-20T11:58:28;3.87;;;1.83;;
10170;SDS011;5127;50.922;6.988;2022-12-20T12:01:03;2.70;;;2.40;;
10170;SDS011;5127;50.922;6.988;2022-12-20T12:03:35;3.27;;;2.20;;
10170;SDS011;5127;50.922;6.988;2022-12-20T12:06:06;2.70;;;2.13;;
10170;SDS011;5127;50.922;6.988;2022-12-20T12:08:39;4.03;;;2.30;;
10170;SDS011;5127;50.922;6.988;2022-12-20T12:11:13;2.90;;;2.47;;
10170;SDS011;5127;50.922;6.988;2022-12-20T12:13:43;2.67;;;2.17;;
10170;SDS011;5127;50.922;6.988;2022-12-20T12:16:11;3.40;;;2.17;;
10170;SDS011;5127;50.922;6.988;2022-12-20T12:18:44;4.97;;;2.30;;
10170;SDS011;5127;50.922;6.988;2022-12-20T12:21:15;4.33;;;2.10;;
10170;SDS011;5127;50.922;6.988;2022-12-20T12:23:51;2.00;;;1.80;;
10170;SDS011;5127;50.922;6.988;2022-12-20T12:26:27;5.23;;;2.30;;
10170;SDS011;5127;50.922;6.988;2022-12-20T12:28:58;3.83;;;2.00;;
10170;SDS011;5127;50.922;6.988;2022-12-20T12:31:28;3.40;;;2.30;;
10170;SDS011;5127;50.922;6.988;2022-12-20T12:34:04;4.53;;;2.40;;
10170;SDS011;5127;50.922;6.988;2022-12-20T12:36:51;4.10;;;2.30;;
10170;SDS011;5127;50.922;6.988;2022-12-20T12:42:33;3.00;;;2.07;;
10170;SDS011;5127;50.922;6.988;2022-12-20T12:45:39;2.30;;;1.90;;
10170;SDS011;5127;50.922;6.988;2022-12-20T12:48:11;5.47;;;2.30;;
10170;SDS011;5127;50.922;6.988;2022-12-20T12:50:43;3.27;;;2.13;;
10170;SDS011;5127;50.922;6.988;2022-12-20T12:53:15;3.67;;;2.57;;
10170;SDS011;5127;50.922;6.988;2022-12-20T12:55:46;3.13;;;2.53;;
10170;SDS011;5127;50.922;6.988;2022-12-20T13:01:04;3.10;;;2.17;;
10170;SDS011;5127;50.922;6.988;2022-12-20T13:03:45;4.30;;;2.37;;
10170;SDS011;5127;50.922;6.988;2022-12-20T13:06:53;3.90;;;2.27;;
10170;SDS011;5127;50.922;6.988;2022-12-20T13:09:36;3.70;;;2.40;;
10170;SDS011;5127;50.922;6.988;2022-12-20T13:18:16;3.17;;;2.87;;
10170;SDS011;5127;50.922;6.988;2022-12-20T13:27:27;6.10;;;3.30;;
10170;SDS011;5127;50.922;6.988;2022-12-20T13:29:58;6.13;;;3.33;;
10170;SDS011;5127;50.922;6.988;2022-12-20T13:35:59;4.07;;;2.93;;
10170;SDS011;5127;50.922;6.988;2022-12-20T13:38:51;4.33;;;2.70;;
10170;SDS011;5127;50.922;6.988;2022-12-20T13:41:31;6.83;;;3.20;;
10170;SDS011;5127;50.922;6.988;2022-12-20T13:44:09;3.63;;;2.80;;
10170;SDS011;5127;50.922;6.988;2022-12-20T13:46:53;4.20;;;2.50;;
10170;SDS011;5127;50.922;6.988;2022-12-20T13:49:24;4.57;;;3.00;;
10170;SDS011;5127;50.922;6.988;2022-12-20T13:52:11;3.30;;;3.00;;
10170;SDS011;5127;50.922;6.988;2022-12-20T13:54:48;3.50;;;2.40;;
10170;SDS011;5127;50.922;6.988;2022-12-20T13:57:24;4.23;;;2.77;;
10170;SDS011;5127;50.922;6.988;2022-12-20T13:59:55;4.17;;;3.10;;
10170;SDS011;5127;50.922;6.988;2022-12-20T14:02:26;5.47;;;3.20;;
10170;SDS011;5127;50.922;6.988;2022-12-20T14:04:57;4.03;;;3.10;;
10170;SDS011;5127;50.922;6.988;2022-12-20T14:07:30;4.33;;;3.40;;
10170;SDS011;5127;50.922;6.988;2022-12-20T14:09:59;4.33;;;3.00;;
10170;SDS011;5127;50.922;6.988;2022-12-20T14:12:29;4.80;;;2.73;;
10170;SDS011;5127;50.922;6.988;2022-12-20T14:14:57;4.73;;;2.80;;
10170;SDS011;5127;50.922;6.988;2022-12-20T14:17:25;4.47;;;2.57;;
10170;SDS011;5127;50.922;6.988;2022-12-20T14:20:06;3.90;;;2.47;;
10170;SDS011;5127;50.922;6.988;2022-12-20T14:22:40;6.50;;;2.60;;
10170;SDS011;5127;50.922;6.988;2022-12-20T14:25:20;3.50;;;2.63;;
10170;SDS011;5127;50.922;6.988;2022-12-20T14:27:56;3.20;;;2.57;;
10170;SDS011;5127;50.922;6.988;2022-12-20T14:30:25;3.83;;;2.50;;
10170;SDS011;5127;50.922;6.988;2022-12-20T14:32:57;4.33;;;2.60;;
10170;SDS011;5127;50.922;6.988;2022-12-20T14:35:25;2.80;;;2.50;;
10170;SDS011;5127;50.922;6.988;2022-12-20T14:37:55;4.50;;;2.80;;
10170;SDS011;5127;50.922;6.988;2022-12-20T14:40:24;4.03;;;2.77;;
10170;SDS011;5127;50.922;6.988;2022-12-20T14:42:52;5.57;;;2.73;;
10170;SDS011;5127;50.922;6.988;2022-12-20T14:45:24;3.10;;;2.30;;
10170;SDS011;5127;50.922;6.988;2022-12-20T14:47:54;4.00;;;2.53;;
10170;SDS011;5127;50.922;6.988;2022-12-20T14:50:27;3.50;;;2.50;;
10170;SDS011;5127;50.922;6.988;2022-12-20T14:52:56;2.73;;;2.30;;
10170;SDS011;5127;50.922;6.988;2022-12-20T14:55:31;4.67;;;2.77;;
10170;SDS011;5127;50.922;6.988;2022-12-20T14:58:01;2.87;;;2.20;;
10170;SDS011;5127;50.922;6.988;2022-12-20T15:00:54;3.73;;;2.00;;
10170;SDS011;5127;50.922;6.988;2022-12-20T15:03:23;4.80;;;2.00;;
10170;SDS011;5127;50.922;6.988;2022-12-20T15:05:52;2.27;;;1.87;;
10170;SDS011;5127;50.922;6.988;2022-12-20T15:08:22;2.57;;;2.10;;
10170;SDS011;5127;50.922;6.988;2022-12-20T15:10:55;3.17;;;1.93;;
10170;SDS011;5127;50.922;6.988;2022-12-20T15:13:26;4.07;;;1.90;;
10170;SDS011;5127;50.922;6.988;2022-12-20T15:15:58;2.10;;;1.70;;
10170;SDS011;5127;50.922;6.988;2022-12-20T15:18:28;2.97;;;1.90;;
10170;SDS011;5127;50.922;6.988;2022-12-20T15:21:00;2.70;;;2.00;;
10170;SDS011;5127;50.922;6.988;2022-12-20T15:23:30;2.23;;;2.03;;
10170;SDS011;5127;50.922;6.988;2022-12-20T15:25:58;5.47;;;2.23;;
10170;SDS011;5127;50.922;6.988;2022-12-20T15:28:26;2.87;;;2.00;;
10170;SDS011;5127;50.922;6.988;2022-12-20T15:30:53;4.17;;;2.20;;
10170;SDS011;5127;50.922;6.988;2022-12-20T15:33:23;7.27;;;2.50;;
10170;SDS011;5127;50.922;6.988;2022-12-20T15:35:52;3.63;;;2.50;;
10170;SDS011;5127;50.922;6.988;2022-12-20T15:38:21;8.57;;;3.47;;
10170;SDS011;5127;50.922;6.988;2022-12-20T15:40:49;6.00;;;3.33;;
10170;SDS011;5127;50.922;6.988;2022-12-20T15:43:20;5.60;;;3.20;;
10170;SDS011;5127;50.922;6.988;2022-12-20T15:45:50;4.67;;;3.07;;
10170;SDS011;5127;50.922;6.988;2022-12-20T15:48:19;5.20;;;3.33;;
10170;SDS011;5127;50.922;6.988;2022-12-20T15:50:50;5.23;;;2.83;;
10170;SDS011;5127;50.922;6.988;2022-12-20T15:53:20;4.40;;;3.33;;
10170;SDS011;5127;50.922;6.988;2022-12-20T15:55:52;4.33;;;2.87;;